Time;durP1;ratioP1;P1;durP2;ratioP2;P2;SDS_P1;SDS_P2;PMS_P1;PMS_P2;Temp;Humidity;BMP_temperature;BMP_pressure;BME280_temperature;BME280_humidity;BME280_pressure;Samples;Min_cycle;Max_cycle;Signal;HPM_P1;HPM_P2
2022/04/27 00:00:24;;;;;;;0.20;0.20;;;8.20;99.90;;;8.07;100.00;101152.53;4954428;28;20208;-77
2022/04/27 00:02:59;;;;;;;0.20;0.20;;;8.20;99.90;;;8.06;100.00;101153.38;4955569;28;20217;-76
2022/04/27 00:05:27;;;;;;;0.20;0.20;;;8.20;99.90;;;8.02;100.00;101157.66;4951463;28;20230;-76
2022/04/27 00:07:56;;;;;;;0.43;0.43;;;8.20;99.90;;;7.99;100.00;101154.94;4953938;28;20221;-75
2022/04/27 00:10:24;;;;;;;0.17;0.17;;;8.20;99.90;;;7.95;100.00;101153.06;4955264;28;20201;-76
2022/04/27 00:12:52;;;;;;;0.20;0.20;;;8.10;99.90;;;7.95;100.00;101151.31;4952589;28;20213;-76
2022/04/27 00:15:23;;;;;;;0.20;0.20;;;8.10;99.90;;;7.90;100.00;101144.13;4954259;28;20217;-77
2022/04/27 00:17:51;;;;;;;0.20;0.20;;;8.10;99.90;;;7.89;100.00;101150.22;4968710;28;20242;-77
2022/04/27 00:20:19;;;;;;;0.10;0.10;;;8.10;99.90;;;7.85;100.00;101143.97;4957464;28;20579;-76
2022/04/27 00:22:47;;;;;;;0.20;0.20;;;8.10;99.90;;;7.81;100.00;101154.38;4952708;28;20217;-75
2022/04/27 00:25:16;;;;;;;0.20;0.20;;;8.00;99.90;;;7.74;100.00;101157.59;4951179;28;20213;-75
2022/04/27 00:27:45;;;;;;;0.10;0.10;;;8.00;99.90;;;7.69;100.00;101166.25;4953153;28;20225;-75
2022/04/27 00:30:13;;;;;;;0.10;0.10;;;7.90;99.90;;;7.65;100.00;101171.38;4959882;28;20207;-76
2022/04/27 00:32:41;;;;;;;0.10;0.10;;;7.90;99.90;;;7.62;100.00;101171.28;4961975;28;20217;-76
2022/04/27 00:35:09;;;;;;;0.20;0.20;;;7.90;99.90;;;7.63;100.00;101175.69;4966984;28;20213;-76
2022/04/27 00:37:37;;;;;;;0.20;0.20;;;7.90;99.90;;;7.64;100.00;101169.59;4950826;28;20221;-76
2022/04/27 00:40:05;;;;;;;0.10;0.10;;;7.80;99.90;;;7.65;100.00;101171.38;4957049;28;20574;-76
2022/04/27 00:42:33;;;;;;;0.20;0.20;;;7.80;99.90;;;7.61;100.00;101158.97;4953423;28;20214;-76
2022/04/27 00:45:03;;;;;;;0.20;0.20;;;7.80;99.90;;;7.64;100.00;101167.84;4951798;28;20218;-78
2022/04/27 00:47:31;;;;;;;0.20;0.20;;;7.80;99.90;;;7.63;100.00;101159.91;4952804;28;20222;-76
2022/04/27 00:50:02;;;;;;;0.20;0.20;;;7.80;99.90;;;7.60;100.00;101159.81;4954283;28;20224;-77
2022/04/27 00:52:33;;;;;;;0.20;0.20;;;7.80;99.90;;;7.61;100.00;101162.47;4967621;28;20221;-77
2022/04/27 00:55:02;;;;;;;0.20;0.20;;;7.70;99.90;;;7.65;100.00;101166.09;4951688;28;20217;-77
2022/04/27 00:57:30;;;;;;;0.20;0.20;;;7.70;99.90;;;7.67;100.00;101153.88;4944542;28;20233;-77
2022/04/27 00:59:58;;;;;;;0.20;0.20;;;7.80;99.90;;;7.68;100.00;101158.31;4969263;28;20210;-77
2022/04/27 01:02:26;;;;;;;0.20;0.20;;;7.80;99.90;;;7.69;100.00;101163.63;4954674;28;20229;-76
2022/04/27 01:04:54;;;;;;;0.20;0.20;;;7.80;99.90;;;7.70;100.00;101164.53;4954016;28;20206;-78
2022/04/27 01:07:24;;;;;;;0.10;0.10;;;7.80;99.90;;;7.75;100.00;101169.94;4936992;28;20241;-78
2022/04/27 01:09:53;;;;;;;0.20;0.20;;;7.80;99.90;;;7.72;100.00;101178.63;4956778;28;20210;-77
2022/04/27 01:12:21;;;;;;;0.10;0.10;;;7.80;99.90;;;7.74;100.00;101182.19;4972297;28;20213;-77
2022/04/27 01:15:01;;;;;;;0.10;0.10;;;7.80;99.90;;;7.77;100.00;101198.09;4967862;28;20210;-76
2022/04/27 01:17:29;;;;;;;0.10;0.10;;;7.80;99.90;;;7.77;100.00;101190.19;4953737;28;20685;-76
2022/04/27 01:19:58;;;;;;;0.17;0.17;;;7.80;99.90;;;7.79;100.00;101193.78;4958619;28;20214;-76
2022/04/27 01:22:28;;;;;;;0.20;0.20;;;7.90;99.90;;;7.76;100.00;101192.78;4955421;28;20207;-76
2022/04/27 01:24:57;;;;;;;0.20;0.20;;;7.90;99.90;;;7.77;100.00;101192.84;4959448;28;20214;-77
2022/04/27 01:27:25;;;;;;;0.20;0.20;;;7.90;99.90;;;7.69;100.00;101182.06;4972638;28;20230;-76
2022/04/27 01:29:52;;;;;;;0.20;0.20;;;7.90;99.90;;;7.67;100.00;101194.28;4970793;28;20218;-76
2022/04/27 01:32:20;;;;;;;0.20;0.20;;;7.80;99.90;;;7.69;100.00;101176.78;4959299;28;20214;-77
2022/04/27 01:34:48;;;;;;;0.20;0.20;;;7.80;99.90;;;7.68;100.00;101187.28;4959998;28;20206;-78
2022/04/27 01:40:03;;;;;;;0.10;0.10;;;7.80;99.90;;;7.72;100.00;101187.41;4955566;28;20206;-77
2022/04/27 01:42:31;;;;;;;0.20;0.20;;;7.80;99.90;;;7.74;100.00;101187.47;4958793;28;20229;-78
2022/04/27 01:45:01;;;;;;;0.10;0.10;;;7.80;99.90;;;7.74;100.00;101197.09;4969357;28;20217;-76
2022/04/27 01:47:30;;;;;;;0.20;0.20;;;7.80;99.90;;;7.70;100.00;101204.00;4965926;28;20222;-76
2022/04/27 01:50:00;;;;;;;0.20;0.20;;;7.80;99.90;;;7.67;100.00;101198.66;4968612;28;20600;-77
2022/04/27 01:55:15;;;;;;;0.20;0.20;;;7.80;99.90;;;7.64;100.00;101195.91;4970963;28;20234;-76
2022/04/27 01:57:43;;;;;;;0.20;0.20;;;7.80;99.90;;;7.63;100.00;101197.66;4961548;28;20224;-77
2022/04/27 02:00:11;;;;;;;0.20;0.20;;;7.80;99.90;;;7.63;100.00;101202.03;4955188;28;20206;-77
2022/04/27 02:02:43;;;;;;;0.20;0.20;;;7.70;99.90;;;7.61;100.00;101196.69;4959734;28;20214;-78
2022/04/27 02:05:11;;;;;;;0.20;0.20;;;7.80;99.90;;;7.62;100.00;101197.59;4954543;28;20217;-77
2022/04/27 02:07:39;;;;;;;0.20;0.20;;;7.70;99.90;;;7.61;100.00;101196.69;4968764;28;20221;-76
2022/04/27 02:10:08;;;;;;;0.20;0.20;;;7.70;99.90;;;7.61;100.00;101193.19;4958864;28;20583;-76
2022/04/27 02:12:38;;;;;;;0.20;0.20;;;7.70;99.90;;;7.55;100.00;101183.34;4971801;28;20210;-76
2022/04/27 02:15:13;;;;;;;0.20;0.20;;;7.70;99.90;;;7.60;100.00;101196.66;4974450;28;20658;-76
2022/04/27 02:17:43;;;;;;;0.20;0.20;;;7.70;99.90;;;7.58;100.00;101207.13;4975914;28;20572;-76
2022/04/27 02:20:13;;;;;;;0.20;0.20;;;7.70;99.90;;;7.56;100.00;101200.94;4956564;28;20225;-76
2022/04/27 02:22:41;;;;;;;0.20;0.20;;;7.70;99.90;;;7.59;100.00;101213.28;4959261;28;20202;-76
2022/04/27 02:25:09;;;;;;;0.20;0.20;;;7.70;99.90;;;7.52;100.00;101216.56;4953355;28;20218;-76
2022/04/27 02:27:37;;;;;;;0.20;0.20;;;7.60;99.90;;;7.55;100.00;101225.47;4967761;28;20206;-76
2022/04/27 02:30:06;;;;;;;0.20;0.20;;;7.60;99.90;;;7.57;100.00;101229.03;4970199;28;20628;-76
2022/04/27 02:32:34;;;;;;;0.20;0.20;;;7.60;99.90;;;7.56;100.00;101236.88;4954662;28;20681;-75
2022/04/27 02:35:03;;;;;;;0.20;0.20;;;7.60;99.90;;;7.53;100.00;101234.16;4969095;28;20206;-76
2022/04/27 02:37:33;;;;;;;0.20;0.20;;;7.60;99.90;;;7.47;100.00;101233.94;4960968;28;20206;-76
2022/04/27 02:40:03;;;;;;;0.20;0.20;;;7.60;99.90;;;7.44;100.00;101237.34;4960242;28;20233;-75
2022/04/27 02:42:32;;;;;;;0.20;0.20;;;7.50;99.90;;;7.39;100.00;101242.47;4974362;28;20563;-76
2022/04/27 02:45:00;;;;;;;1.45;0.75;;;7.50;99.90;;;7.38;100.00;101238.03;4961557;28;20218;-76
2022/04/27 02:47:28;;;;;;;0.20;0.20;;;7.50;99.90;;;7.32;100.00;101243.09;4978985;28;20225;-76
2022/04/27 02:52:55;;;;;;;0.20;0.20;;;7.50;99.90;;;7.28;100.00;101269.25;4956577;28;20193;-76
2022/04/27 02:55:32;;;;;;;0.20;0.20;;;7.40;99.90;;;7.26;100.00;101263.91;4963989;28;20233;-76
2022/04/27 02:58:00;;;;;;;0.20;0.20;;;7.40;99.90;;;7.20;100.00;101271.59;4959967;28;20210;-76
2022/04/27 03:00:30;;;;;;;0.30;0.30;;;7.40;99.90;;;7.18;100.00;101272.38;4971236;28;20225;-76
2022/04/27 03:03:03;;;;;;;0.20;0.20;;;7.30;99.90;;;7.16;100.00;101281.97;4973120;28;20221;-77
2022/04/27 03:05:31;;;;;;;0.20;0.20;;;7.30;99.90;;;7.16;100.00;101285.47;4969174;28;20225;-77
2022/04/27 03:08:00;;;;;;;0.20;0.20;;;7.30;99.90;;;7.16;100.00;101284.59;4956190;28;20221;-77
2022/04/27 03:10:30;;;;;;;0.15;0.15;;;7.30;99.90;;;7.12;100.00;101278.31;4967188;28;20610;-77
2022/04/27 03:12:59;;;;;;;0.20;0.20;;;7.30;99.90;;;7.07;100.00;101288.66;4953451;28;20643;-76
2022/04/27 03:15:27;;;;;;;0.20;0.20;;;7.30;99.90;;;7.02;100.00;101284.97;4953219;28;20238;-76
2022/04/27 03:20:41;;;;;;;0.10;0.10;;;7.20;99.90;;;6.98;100.00;101308.47;4956978;28;20241;-77
2022/04/27 03:23:09;;;;;;;0.20;0.20;;;7.20;99.90;;;6.90;100.00;101302.94;4948547;28;20214;-76
2022/04/27 03:25:37;;;;;;;0.15;0.15;;;7.20;99.90;;;6.90;100.00;101308.19;4952393;28;20230;-76
2022/04/27 03:28:06;;;;;;;0.20;0.20;;;7.20;99.90;;;6.88;100.00;101312.50;4969545;28;20214;-76
2022/04/27 03:30:36;;;;;;;0.20;0.20;;;7.20;99.90;;;6.84;100.00;101318.47;4968693;28;20210;-78
2022/04/27 03:33:15;;;;;;;0.15;0.15;;;7.10;99.90;;;6.81;100.00;101314.84;4953762;28;20220;-78
2022/04/27 03:35:45;;;;;;;0.20;0.20;;;7.10;99.90;;;6.79;100.00;101320.03;4950284;28;20284;-78
2022/04/27 03:38:18;;;;;;;0.13;0.13;;;7.10;99.90;;;6.71;100.00;101322.38;4950018;29;20211;-78
2022/04/27 03:40:47;;;;;;;0.10;0.10;;;7.10;99.90;;;6.72;100.00;101325.91;4954775;28;20237;-77
2022/04/27 03:43:17;;;;;;;0.10;0.10;;;7.10;99.90;;;6.67;100.00;101319.56;4951568;28;20210;-76
2022/04/27 03:45:45;;;;;;;0.20;0.20;;;7.00;99.90;;;6.65;100.00;101332.66;4968607;28;20245;-76
2022/04/27 03:48:13;;;;;;;0.20;0.20;;;7.00;99.90;;;6.59;100.00;101334.13;4968998;28;20213;-76
2022/04/27 03:50:41;;;;;;;0.20;0.20;;;7.00;99.90;;;6.60;100.00;101334.19;4968596;28;20217;-76
2022/04/27 03:53:10;;;;;;;0.10;0.10;;;6.90;99.90;;;6.51;100.00;101341.72;4957714;28;20228;-84
2022/04/27 03:55:38;;;;;;;1.17;1.17;;;6.90;99.90;;;6.40;100.00;101349.16;4951410;29;20714;-76
2022/04/27 03:58:06;;;;;;;0.20;0.20;;;6.90;99.90;;;6.35;100.00;101355.94;4961728;28;20214;-76
2022/04/27 04:00:35;;;;;;;0.10;0.10;;;6.80;99.90;;;6.31;100.00;101361.00;4968377;28;20238;-76
2022/04/27 04:03:11;;;;;;;0.20;0.20;;;6.70;99.90;;;6.12;100.00;101359.34;4963977;28;20213;-76
2022/04/27 04:05:46;;;;;;;0.20;0.20;;;6.70;99.90;;;6.11;100.00;101375.94;4951655;29;20248;-76
2022/04/27 04:08:14;;;;;;;0.17;0.17;;;6.50;99.90;;;5.97;100.00;101370.13;4965435;28;20214;-76
2022/04/27 04:10:43;;;;;;;0.20;0.20;;;6.50;99.90;;;5.95;100.00;101382.28;4944436;28;20226;-76
2022/04/27 04:13:13;;;;;;;0.20;0.20;;;6.40;99.90;;;5.93;100.00;101383.03;4950617;28;20211;-76
2022/04/27 04:15:50;;;;;;;0.13;0.13;;;6.40;99.90;;;5.94;100.00;101377.88;4951540;28;20229;-76
2022/04/27 04:18:33;;;;;;;0.20;0.20;;;6.40;99.90;;;5.84;100.00;101380.00;4953392;28;20545;-77
2022/04/27 04:21:13;;;;;;;0.20;0.20;;;6.40;99.90;;;5.79;100.00;101392.91;4971862;28;20221;-76
2022/04/27 04:24:05;;;;;;;0.20;0.20;;;6.30;99.90;;;5.79;100.00;101413.91;4943489;28;20206;-76
2022/04/27 04:29:24;;;;;;;0.20;0.20;;;6.20;99.90;;;5.91;100.00;101432.88;4944872;28;20202;-76
2022/04/27 04:31:53;;;;;;;0.20;0.20;;;6.20;99.90;;;5.86;100.00;101443.97;4966902;28;20202;-76
2022/04/27 04:34:40;;;;;;;0.38;0.38;;;6.20;99.90;;;5.93;100.00;101461.81;4954212;28;20206;-77
2022/04/27 04:37:12;;;;;;;0.20;0.20;;;6.20;99.90;;;5.89;100.00;101470.34;4966741;28;20232;-77
2022/04/27 04:39:40;;;;;;;0.20;0.20;;;6.20;99.90;;;5.90;100.00;101482.69;4967288;28;20237;-77
2022/04/27 04:42:08;;;;;;;0.10;0.10;;;6.20;99.90;;;5.92;100.00;101489.78;4950680;28;20213;-77
2022/04/27 04:44:39;;;;;;;0.25;0.25;;;6.20;99.90;;;6.06;100.00;101507.06;4954498;29;20217;-77
2022/04/27 04:47:13;;;;;;;0.10;0.10;;;6.20;99.90;;;6.09;100.00;101508.91;4957905;28;20229;-77
2022/04/27 04:49:59;;;;;;;0.20;0.20;;;6.30;99.90;;;6.12;100.00;101524.81;4956689;28;20223;-77
2022/04/27 04:52:54;;;;;;;0.20;0.20;;;6.20;99.90;;;6.16;100.00;101534.63;4956737;28;20217;-77
2022/04/27 04:55:45;;;;;;;0.20;0.20;;;6.30;99.90;;;6.22;100.00;101532.25;4968242;28;20230;-77
2022/04/27 04:58:30;;;;;;;0.20;0.20;;;6.30;99.90;;;6.24;100.00;101537.59;4954313;29;20210;-77
2022/04/27 05:01:19;;;;;;;0.10;0.10;;;6.40;99.90;;;6.23;100.00;101549.81;4954171;28;20237;-76
2022/04/27 05:04:03;;;;;;;0.10;0.10;;;6.40;99.90;;;6.26;100.00;101544.69;4973105;28;20210;-77
2022/04/27 05:06:52;;;;;;;0.20;0.20;;;6.40;99.90;;;6.29;100.00;101538.69;4956542;28;20234;-77
2022/04/27 05:09:43;;;;;;;0.20;0.20;;;6.50;99.90;;;6.34;100.00;101543.31;4959431;28;20209;-78
2022/04/27 05:12:30;;;;;;;0.20;0.20;;;6.50;99.90;;;6.37;100.00;101542.53;4956012;28;20202;-77
2022/04/27 05:15:11;;;;;;;0.20;0.20;;;6.60;99.90;;;6.46;100.00;101548.19;4970285;28;20214;-77
2022/04/27 05:17:44;;;;;;;0.20;0.20;;;6.60;99.90;;;6.60;100.00;101554.97;4972040;28;20206;-77
2022/04/27 05:20:31;;;;;;;0.20;0.20;;;6.60;99.90;;;6.69;100.00;101581.66;4942995;29;20230;-77
2022/04/27 05:23:11;;;;;;;0.20;0.20;;;6.70;99.90;;;6.70;100.00;101595.69;4955989;28;20202;-77
2022/04/27 05:25:59;;;;;;;0.20;0.20;;;6.80;99.90;;;6.94;100.00;101617.78;4970164;28;20230;-77
2022/04/27 05:31:59;;;;;;;0.20;0.20;;;6.90;99.90;;;7.22;100.00;101640.88;4953128;29;20214;-76
2022/04/27 05:34:37;;;;;;;0.20;0.20;;;7.10;99.90;;;7.26;100.00;101648.06;4956097;28;20217;-76
2022/04/27 05:37:20;;;;;;;0.20;0.20;;;7.20;99.90;;;7.36;100.00;101655.50;4960690;28;20222;-76
2022/04/27 05:40:10;;;;;;;0.20;0.20;;;7.20;99.90;;;7.46;100.00;101650.63;4955724;28;20249;-76
2022/04/27 05:42:51;;;;;;;0.20;0.20;;;7.30;99.90;;;7.59;100.00;101660.81;4962753;28;20222;-77
2022/04/27 05:45:26;;;;;;;0.20;0.20;;;7.40;99.90;;;7.60;100.00;101662.63;4964821;28;20602;-76
2022/04/27 05:48:05;;;;;;;0.20;0.20;;;7.40;99.90;;;7.69;100.00;101668.25;4964402;28;20210;-76
2022/04/27 05:50:43;;;;;;;0.10;0.10;;;7.50;99.90;;;7.69;100.00;101652.44;4953324;28;20213;-76
2022/04/27 05:53:33;;;;;;;0.20;0.20;;;7.60;99.90;;;7.76;100.00;101653.59;4952524;28;20210;-76
2022/04/27 05:56:25;;;;;;;0.20;0.20;;;7.60;99.90;;;7.75;100.00;101652.69;4942452;29;20235;-76
2022/04/27 05:59:11;;;;;;;0.20;0.20;;;7.70;99.90;;;7.80;100.00;101647.59;4936633;29;20210;-76
2022/04/27 06:01:42;;;;;;;0.20;0.20;;;7.70;99.90;;;7.84;100.00;101650.47;4958221;28;20233;-76
2022/04/27 06:04:11;;;;;;;0.20;0.20;;;7.70;99.90;;;7.89;100.00;101648.91;4944985;29;20229;-76
2022/04/27 06:06:45;;;;;;;0.10;0.10;;;7.80;99.90;;;7.95;100.00;101643.88;4938575;29;20233;-76
2022/04/27 06:09:16;;;;;;;0.20;0.20;;;7.90;99.90;;;8.15;100.00;101659.53;4950895;28;20203;-76
2022/04/27 06:12:10;;;;;;;0.57;0.57;;;8.00;99.90;;;8.36;100.00;101657.75;4948627;28;20202;-76
2022/04/27 06:14:44;;;;;;;0.20;0.20;;;8.10;99.90;;;8.49;100.00;101664.38;4946172;28;20206;-76
2022/04/27 06:17:26;;;;;;;0.10;0.10;;;8.30;99.90;;;8.46;100.00;101630.00;4970961;28;20241;-76
2022/04/27 06:19:54;;;;;;;0.50;0.50;;;8.40;99.90;;;8.50;100.00;101632.81;4953916;29;20675;-76
2022/04/27 06:22:22;;;;;;;0.20;0.20;;;8.40;99.90;;;8.59;100.00;101632.22;4970916;28;20213;-76
2022/04/27 06:24:50;;;;;;;0.10;0.10;;;8.50;99.90;;;8.61;100.00;101627.91;4965007;28;20596;-76
2022/04/27 06:27:39;;;;;;;0.13;0.13;;;8.50;99.90;;;8.67;100.00;101625.50;4955380;28;20206;-76
2022/04/27 06:30:08;;;;;;;0.32;0.32;;;8.60;99.90;;;8.70;100.00;101614.16;4968169;28;20214;-76
2022/04/27 06:32:38;;;;;;;0.20;0.20;;;8.70;99.90;;;8.77;100.00;101619.69;4971263;28;20205;-76
2022/04/27 06:35:12;;;;;;;0.20;0.20;;;8.70;99.90;;;8.76;100.00;101611.72;4952169;29;20218;-76
2022/04/27 06:37:43;;;;;;;0.10;0.10;;;8.70;99.90;;;8.81;100.00;101612.78;4953853;28;20221;-77
2022/04/27 06:40:11;;;;;;;0.20;0.20;;;8.70;99.90;;;8.85;100.00;101614.69;4948187;29;20214;-77
2022/04/27 06:42:43;;;;;;;0.20;0.20;;;8.80;99.90;;;8.95;100.00;101614.16;4958691;28;20219;-77
2022/04/27 06:45:31;;;;;;;0.10;0.10;;;8.90;99.90;;;9.18;100.00;101629.06;4936947;29;20230;-76
2022/04/27 06:48:17;;;;;;;0.10;0.10;;;9.00;99.90;;;9.10;100.00;101617.34;4952139;28;20229;-78
2022/04/27 06:51:04;;;;;;;0.95;0.95;;;9.10;99.90;;;9.18;100.00;101609.69;4952452;28;20214;-76
2022/04/27 06:53:52;;;;;;;0.20;0.20;;;9.10;99.90;;;9.34;100.00;101608.47;4951822;28;20678;-79
2022/04/27 06:56:38;;;;;;;0.20;0.20;;;9.20;99.90;;;9.19;100.00;101588.63;4963085;28;20408;-78
2022/04/27 06:59:20;;;;;;;0.20;0.20;;;9.20;99.90;;;9.19;100.00;101591.28;4966337;28;20210;-76
2022/04/27 07:01:53;;;;;;;0.25;0.25;;;9.20;99.90;;;9.29;100.00;101601.28;4963218;28;20234;-79
2022/04/27 07:04:22;;;;;;;0.73;0.73;;;9.20;99.90;;;9.29;100.00;101596.00;4945105;28;20205;-77
2022/04/27 07:06:50;;;;;;;0.30;0.30;;;9.30;99.90;;;9.35;100.00;101591.78;4951275;28;20233;-77
2022/04/27 07:09:18;;;;;;;0.20;0.20;;;9.30;99.90;;;9.41;100.00;101598.16;4952355;28;20217;-78
2022/04/27 07:11:46;;;;;;;0.40;0.40;;;9.40;99.90;;;9.66;100.00;101609.50;4950894;29;20225;-78
2022/04/27 07:14:16;;;;;;;0.25;0.25;;;9.40;99.90;;;9.77;100.00;101606.31;4951767;29;20217;-77
2022/04/27 07:16:44;;;;;;;0.47;0.47;;;9.60;99.90;;;9.89;100.00;101617.28;4951749;28;20234;-78
2022/04/27 07:19:12;;;;;;;0.10;0.10;;;9.70;99.90;;;9.93;100.00;101615.63;4952252;28;20210;-77
2022/04/27 07:21:41;;;;;;;0.20;0.20;;;9.80;99.90;;;9.84;100.00;101592.47;4965777;28;20252;-75
2022/04/27 07:24:09;;;;;;;0.10;0.10;;;9.80;99.90;;;10.02;100.00;101613.25;4944269;28;20218;-77
2022/04/27 07:26:37;;;;;;;0.10;0.10;;;9.90;99.90;;;9.74;100.00;101582.47;4951900;28;20229;-77
2022/04/27 07:29:09;;;;;;;0.17;0.17;;;9.90;99.90;;;9.79;100.00;101598.44;4946325;28;20210;-77
2022/04/27 07:31:38;;;;;;;0.10;0.10;;;9.90;99.90;;;10.30;100.00;101644.06;4949654;28;20209;-76
2022/04/27 07:34:06;;;;;;;0.10;0.10;;;10.00;99.90;;;10.56;100.00;101627.25;4947578;28;20221;-77
2022/04/27 07:36:34;;;;;;;0.10;0.10;;;10.30;99.90;;;10.79;100.00;101625.22;4964333;28;20233;-77
2022/04/27 07:39:03;;;;;;;0.20;0.20;;;10.40;99.90;;;10.82;100.00;101603.25;4948313;29;20575;-77
2022/04/27 07:41:35;;;;;;;0.10;0.10;;;10.70;99.90;;;10.63;100.00;101582.44;4951993;28;20686;-78
2022/04/27 07:44:03;;;;;;;0.30;0.30;;;10.70;99.90;;;10.41;100.00;101565.09;4951974;28;20586;-76
2022/04/27 07:46:31;;;;;;;0.10;0.10;;;10.60;99.90;;;10.37;100.00;101564.06;4951069;28;20241;-76
2022/04/27 07:48:59;;;;;;;0.30;0.30;;;10.50;99.90;;;10.50;100.00;101573.28;4950798;28;20217;-75
2022/04/27 07:51:27;;;;;;;0.10;0.10;;;10.50;99.90;;;10.92;100.00;101592.03;4951767;28;20221;-76
2022/04/27 07:53:54;;;;;;;0.10;0.10;;;10.60;99.90;;;10.78;100.00;101554.63;4939954;28;20217;-76
2022/04/27 07:56:23;;;;;;;0.20;0.20;;;10.80;99.90;;;10.98;100.00;101567.47;4946852;29;20222;-76
2022/04/27 07:58:50;;;;;;;0.65;0.65;;;10.80;99.90;;;10.91;100.00;101553.19;4949143;28;20206;-76
2022/04/27 08:01:18;;;;;;;0.10;0.10;;;10.90;99.90;;;11.00;100.00;101552.53;4947716;28;20244;-76
2022/04/27 08:03:46;;;;;;;0.30;0.30;;;11.00;99.90;;;11.22;100.00;101570.75;4950752;28;20209;-76
2022/04/27 08:06:14;;;;;;;0.10;0.10;;;11.10;99.90;;;11.14;100.00;101540.53;4965379;28;20245;-76
2022/04/27 08:08:42;;;;;;;0.10;0.10;;;11.10;99.90;;;11.47;100.00;101558.97;4950570;28;20563;-76
2022/04/27 08:11:13;;;;;;;0.10;0.10;;;11.30;99.90;;;11.65;100.00;101559.41;4951542;28;20217;-75
2022/04/27 08:13:40;;;;;;;0.10;0.10;;;11.40;99.90;;;11.56;100.00;101540.63;4951526;28;20244;-76
2022/04/27 08:16:10;;;;;;;0.10;0.10;;;11.50;99.90;;;11.87;100.00;101544.03;4951070;28;20261;-76
2022/04/27 08:18:39;;;;;;;0.10;0.10;;;11.70;99.90;;;11.94;100.00;101543.31;4950690;28;20209;-76
2022/04/27 08:21:16;;;;;;;0.10;0.10;;;11.80;99.90;;;12.22;100.00;101552.72;4947985;28;20194;-77
2022/04/27 08:23:46;;;;;;;0.30;0.30;;;12.00;99.90;;;11.70;100.00;101498.56;4942756;29;20220;-77
2022/04/27 08:26:15;;;;;;;0.15;0.15;;;12.00;99.90;;;11.52;100.00;101492.00;4950154;28;20230;-77
2022/04/27 08:28:45;;;;;;;0.10;0.10;;;11.70;99.90;;;12.00;100.00;101527.53;4950223;28;20592;-78
2022/04/27 08:31:16;;;;;;;0.10;0.10;;;11.80;99.90;;;12.33;100.00;101552.06;4950739;28;20214;-77
2022/04/27 08:33:44;;;;;;;1.13;0.95;;;12.10;99.90;;;12.18;100.00;101504.03;4945358;28;20679;-78
2022/04/27 08:36:12;;;;;;;0.10;0.10;;;12.30;99.90;;;12.44;100.00;101517.78;4945802;28;20242;-78
2022/04/27 08:39:03;;;;;;;0.65;0.65;;;12.30;99.90;;;12.63;100.00;101522.56;4951335;28;20217;-77
2022/04/27 08:41:35;;;;;;;0.10;0.10;;;12.50;99.90;;;12.86;100.00;101530.91;4964785;28;20226;-76
2022/04/27 08:44:07;;;;;;;0.00;0.00;;;12.70;99.90;;;12.99;100.00;101509.00;4965975;28;20575;-77
2022/04/27 08:46:36;;;;;;;0.20;0.20;;;13.00;99.90;;;12.94;100.00;101491.22;4946135;28;20230;-77
2022/04/27 08:49:09;;;;;;;0.10;0.10;;;13.10;99.90;;;13.21;100.00;101504.09;4965549;28;20205;-77
2022/04/27 08:51:39;;;;;;;0.10;0.10;;;13.30;99.90;;;13.61;100.00;101514.44;4949827;28;20214;-77
2022/04/27 08:54:07;;;;;;;0.10;0.10;;;13.50;99.90;;;13.63;100.00;101477.25;4947474;28;20214;-76
2022/04/27 08:56:36;;;;;;;0.30;0.30;;;13.70;99.90;;;13.96;100.00;101495.38;4946899;29;20229;-78
2022/04/27 08:59:08;;;;;;;0.10;0.10;;;13.90;99.90;;;13.68;100.00;101430.34;4944320;28;20237;-79
2022/04/27 09:01:36;;;;;;;0.10;0.10;;;14.00;99.90;;;14.01;100.00;101464.44;4945060;28;20222;-79
2022/04/27 09:04:15;;;;;;;0.10;0.10;;;14.10;99.90;;;14.36;100.00;101489.66;4956737;28;20214;-80
2022/04/27 09:06:50;;;;;;;0.00;0.00;;;14.30;99.90;;;14.47;100.00;101460.53;4950399;28;20229;-76
2022/04/27 09:09:33;;;;;;;0.20;0.20;;;14.60;99.90;;;13.89;100.00;101397.81;4968766;28;20710;-76
2022/04/27 09:12:08;;;;;;;0.10;0.10;;;14.70;99.90;;;13.55;100.00;101369.94;5003280;23;20236;-75
2022/04/27 09:14:38;;;;;;;0.10;0.10;;;14.50;99.90;;;14.16;100.00;101458.38;4986263;28;20215;-75
2022/04/27 09:23:22;;;;;;;0.20;0.20;;;14.30;99.90;;;14.38;100.00;101463.06;4986942;28;20229;-74
2022/04/27 09:26:00;;;;;;;0.10;0.10;;;14.50;99.90;;;13.78;100.00;101348.06;4986012;28;20235;-79
2022/04/27 09:28:35;;;;;;;0.10;0.10;;;14.60;99.90;;;14.11;100.00;101399.81;5000130;28;20208;-73
2022/04/27 09:31:04;;;;;;;0.03;0.03;;;14.80;99.90;;;14.63;100.00;101408.31;4993541;28;20209;-73
2022/04/27 09:33:38;;;;;;;0.10;0.10;;;15.20;99.90;;;14.89;100.00;101412.06;4983746;28;20680;-73
2022/04/27 09:36:23;;;;;;;0.00;0.00;;;15.70;99.90;;;14.63;100.00;101369.28;4986379;28;20241;-73
2022/04/27 09:38:54;;;;;;;0.00;0.00;;;16.10;99.90;;;14.59;100.00;101426.03;4970866;28;20212;-73
2022/04/27 09:41:42;;;;;;;0.00;0.00;;;15.80;99.90;;;15.91;100.00;101479.31;4974918;28;20209;-74
2022/04/27 09:44:28;;;;;;;0.00;0.00;;;16.50;99.90;;;15.24;96.52;101311.03;4982311;28;20205;-74
2022/04/27 09:46:58;;;;;;;0.10;0.10;;;16.40;99.90;;;15.78;97.70;101385.91;4989797;28;20220;-73
2022/04/27 09:49:27;;;;;;;0.52;0.52;;;16.30;99.90;;;15.24;97.54;101318.13;4989635;28;20208;-73
2022/04/27 09:52:04;;;;;;;0.00;0.00;;;16.40;99.90;;;15.01;98.53;101292.28;4989929;28;20219;-74
2022/04/27 09:54:36;;;;;;;0.00;0.00;;;16.60;99.90;;;15.55;96.50;101345.78;4986720;28;20212;-75
2022/04/27 09:57:09;;;;;;;0.10;0.10;;;16.70;99.90;;;15.50;92.60;101272.91;4980856;28;20233;-73
2022/04/27 09:59:38;;;;;;;0.00;0.00;;;16.70;99.90;;;15.79;92.65;101292.56;4983897;28;20215;-74
2022/04/27 10:02:09;;;;;;;0.00;0.00;;;16.90;99.90;;;15.97;91.79;101305.91;4987412;28;20240;-74
2022/04/27 10:04:39;;;;;;;0.00;0.00;;;16.80;99.90;;;15.89;92.66;101270.34;4987107;28;20224;-73
2022/04/27 10:07:10;;;;;;;0.03;0.03;;;17.20;99.90;;;15.86;93.64;101296.13;4993744;28;20256;-74
2022/04/27 10:09:39;;;;;;;0.00;0.00;;;16.90;99.90;;;15.84;91.55;101256.13;4990016;28;20217;-74
2022/04/27 10:12:15;;;;;;;0.17;0.17;;;17.10;99.90;;;16.81;93.05;101353.97;4993826;28;20216;-74
2022/04/27 10:14:44;;;;;;;0.00;0.00;;;17.30;99.90;;;16.38;88.39;101198.25;4993146;28;20213;-74
2022/04/27 10:17:13;;;;;;;0.00;0.00;;;17.60;99.90;;;16.40;88.74;101233.84;4994383;28;20236;-74
2022/04/27 10:19:49;;;;;;;0.00;0.00;;;17.20;99.90;;;16.54;89.66;101241.81;4990337;28;20212;-74
2022/04/27 10:22:32;;;;;;;0.20;0.20;;;17.60;99.90;;;17.03;90.33;101304.06;4973429;28;20232;-74
2022/04/27 10:25:09;;;;;;;0.00;0.00;;;18.00;99.90;;;17.42;87.62;101276.25;4992189;28;20204;-74
2022/04/27 10:27:40;;;;;;;0.00;0.00;;;18.60;99.90;;;15.89;85.76;101026.72;4988323;28;20212;-73
2022/04/27 10:30:14;;;;;;;0.00;0.00;;;18.40;99.90;;;16.40;89.56;101177.78;4992338;28;20645;-74
2022/04/27 10:32:53;;;;;;;0.60;0.20;;;17.80;99.90;;;16.96;88.85;101227.47;4993296;28;20219;-74
2022/04/27 10:35:33;;;;;;;0.00;0.00;;;18.00;99.90;;;17.16;88.00;101232.72;4990144;28;20212;-75
2022/04/27 10:38:05;;;;;;;0.00;0.00;;;18.20;99.90;;;16.64;87.53;101142.06;4974773;28;20205;-76
2022/04/27 10:40:43;;;;;;;0.35;0.35;;;18.70;99.90;;;16.26;87.02;101071.03;4973617;28;20576;-75
2022/04/27 10:43:27;;;;;;;0.50;0.50;;;18.70;99.90;;;16.66;87.88;101142.09;5007124;28;20232;-74
2022/04/27 10:45:55;;;;;;;0.43;0.20;;;18.40;99.90;;;17.78;86.25;101231.47;4992138;28;20232;-75
2022/04/27 10:48:27;;;;;;;0.00;0.00;;;18.80;99.90;;;17.75;81.18;101129.81;4992738;28;20208;-75
2022/04/27 10:51:02;;;;;;;0.20;0.20;;;19.10;99.90;;;17.98;82.18;101124.25;4996977;28;20211;-75
2022/04/27 10:53:43;;;;;;;0.43;0.20;;;19.60;99.90;;;18.29;87.43;101208.72;4990992;28;20203;-75
2022/04/27 10:56:31;;;;;;;0.00;0.00;;;19.50;99.90;;;18.35;81.84;101146.19;4992365;28;20255;-74
2022/04/27 10:59:02;;;;;;;0.30;0.25;;;19.80;99.90;;;17.80;80.04;101010.25;4988264;28;20209;-75
2022/04/27 11:01:32;;;;;;;0.00;0.00;;;20.40;99.90;;;17.16;81.48;100965.44;4986374;28;20577;-75